Impacts TAF Board
For situational awareness. Not to be used for flight planning purposes.
IDs:

KTYR - Tyler/Pounds Fld, TX, US

Issued at 0520 UTC 22 Oct 2021
Updated at 0658 UTC 22 Oct 2021
Potential Impact None Slight Moderate High
Time<<22/19Z 22/20Z 22/21Z 22/22Z 22/23Z 23/00Z 23/01Z 23/02Z 23/03Z 23/04Z 23/05Z 23/06Z 23/07Z>>
Type PRVL PRVL PRVL PRVL PRVL PRVL PRVL PRVL PRVL PRVL PRVL
VIS >6 >6 >6 >6 >6 >6 >6 >6 >6 >6 >6
CIG -- -- -- -- -- -- -- -- -- -- --
Cover SKC SKC SKC SKC SKC SKC SKC SKC SKC SKC SKC
FltCat VFR VFR VFR VFR VFR VFR VFR VFR VFR VFR VFR
WX -- -- -- -- -- -- -- -- -- -- --
WDir 90 150 150 150 150 150 150 150 150 150 150
WSpd 7 6 6 6 6 6 6 6 6 6 6
WGst -- -- -- -- -- -- -- -- -- -- --
Raw TAF
KTYR 220520Z 2206/2306 03005KT P6SM SKC
  FM221500 09007KT P6SM SKC
  FM222000 15006KT P6SM SKC


METAR Board
Radar Display
Forecast Discussion
For situational awareness. Not to be used for flight planning purposes.